sensor_id;sensor_type;location;lat;lon;timestamp;noise_LAeq;noise_LA_min;noise_LA_max;noise_LA01;noise_LA95
74292;Laerm;62687;55.738;37.516;2023-04-03T00:02:36;65.70;56.10;72.65;;
74292;Laerm;62687;55.738;37.516;2023-04-03T00:05:22;66.14;55.73;73.96;;
74292;Laerm;62687;55.738;37.516;2023-04-03T00:08:08;66.44;55.79;78.94;;
74292;Laerm;62687;55.738;37.516;2023-04-03T00:10:54;65.17;51.82;73.52;;
74292;Laerm;62687;55.738;37.516;2023-04-03T00:13:39;66.74;57.10;74.18;;
74292;Laerm;62687;55.738;37.516;2023-04-03T00:16:26;66.86;58.11;74.98;;
74292;Laerm;62687;55.738;37.516;2023-04-03T00:19:11;66.37;56.54;74.64;;
74292;Laerm;62687;55.738;37.516;2023-04-03T00:21:57;65.87;57.55;73.64;;
74292;Laerm;62687;55.738;37.516;2023-04-03T00:24:43;65.61;57.11;72.62;;
74292;Laerm;62687;55.738;37.516;2023-04-03T00:27:27;66.86;59.02;73.03;;
74292;Laerm;62687;55.738;37.516;2023-04-03T00:30:17;65.59;52.42;73.93;;
74292;Laerm;62687;55.738;37.516;2023-04-03T00:33:02;65.14;56.69;71.38;;
74292;Laerm;62687;55.738;37.516;2023-04-03T00:35:48;66.14;55.37;72.94;;
74292;Laerm;62687;55.738;37.516;2023-04-03T00:38:34;65.73;52.33;73.85;;
74292;Laerm;62687;55.738;37.516;2023-04-03T00:41:20;67.05;53.76;78.43;;
74292;Laerm;62687;55.738;37.516;2023-04-03T00:47:15;67.47;57.98;75.74;;
74292;Laerm;62687;55.738;37.516;2023-04-03T00:50:00;65.72;55.59;77.43;;
74292;Laerm;62687;55.738;37.516;2023-04-03T00:52:47;67.10;55.80;82.80;;
74292;Laerm;62687;55.738;37.516;2023-04-03T00:55:30;66.23;56.41;78.93;;
74292;Laerm;62687;55.738;37.516;2023-04-03T00:58:15;63.86;55.53;74.35;;
74292;Laerm;62687;55.738;37.516;2023-04-03T01:01:05;66.66;54.37;75.20;;
74292;Laerm;62687;55.738;37.516;2023-04-03T01:03:50;66.15;54.89;73.64;;
74292;Laerm;62687;55.738;37.516;2023-04-03T01:06:36;66.98;58.40;75.55;;
74292;Laerm;62687;55.738;37.516;2023-04-03T01:09:21;65.45;53.83;71.89;;
74292;Laerm;62687;55.738;37.516;2023-04-03T01:15:11;68.67;55.67;85.75;;
74292;Laerm;62687;55.738;37.516;2023-04-03T01:17:57;65.32;53.42;73.64;;
74292;Laerm;62687;55.738;37.516;2023-04-03T01:24:26;67.09;58.13;74.08;;
74292;Laerm;62687;55.738;37.516;2023-04-03T01:27:11;68.51;55.84;82.83;;
74292;Laerm;62687;55.738;37.516;2023-04-03T01:29:55;65.26;57.04;72.56;;
74292;Laerm;62687;55.738;37.516;2023-04-03T01:32:40;66.04;57.09;76.68;;
74292;Laerm;62687;55.738;37.516;2023-04-03T01:35:24;66.32;57.31;73.10;;
74292;Laerm;62687;55.738;37.516;2023-04-03T01:38:08;64.85;57.20;71.90;;
74292;Laerm;62687;55.738;37.516;2023-04-03T01:40:53;66.40;58.69;76.32;;
74292;Laerm;62687;55.738;37.516;2023-04-03T01:43:37;67.17;58.96;73.65;;
74292;Laerm;62687;55.738;37.516;2023-04-03T01:46:22;67.60;59.36;74.23;;
74292;Laerm;62687;55.738;37.516;2023-04-03T01:49:06;65.98;54.44;71.50;;
74292;Laerm;62687;55.738;37.516;2023-04-03T01:51:50;67.50;54.17;77.21;;
74292;Laerm;62687;55.738;37.516;2023-04-03T01:54:34;65.13;55.66;70.37;;
74292;Laerm;62687;55.738;37.516;2023-04-03T01:57:18;68.22;59.84;75.06;;
74292;Laerm;62687;55.738;37.516;2023-04-03T02:00:03;65.73;57.24;71.30;;
74292;Laerm;62687;55.738;37.516;2023-04-03T02:02:47;67.12;57.26;77.14;;
74292;Laerm;62687;55.738;37.516;2023-04-03T02:05:32;67.42;61.16;74.64;;
74292;Laerm;62687;55.738;37.516;2023-04-03T02:08:16;67.12;59.72;75.91;;
74292;Laerm;62687;55.738;37.516;2023-04-03T02:11:04;67.83;60.67;79.70;;
74292;Laerm;62687;55.738;37.516;2023-04-03T02:13:48;69.03;61.18;77.71;;
74292;Laerm;62687;55.738;37.516;2023-04-03T02:16:32;68.86;58.47;78.62;;
74292;Laerm;62687;55.738;37.516;2023-04-03T02:19:17;68.38;61.21;78.80;;
74292;Laerm;62687;55.738;37.516;2023-04-03T02:22:03;67.61;59.96;82.57;;
74292;Laerm;62687;55.738;37.516;2023-04-03T02:24:47;68.49;60.23;73.91;;
74292;Laerm;62687;55.738;37.516;2023-04-03T02:27:31;68.86;61.93;76.82;;
74292;Laerm;62687;55.738;37.516;2023-04-03T02:30:15;69.00;62.72;75.05;;
74292;Laerm;62687;55.738;37.516;2023-04-03T02:32:59;70.17;62.63;77.20;;
74292;Laerm;62687;55.738;37.516;2023-04-03T02:35:44;71.43;61.82;81.20;;
74292;Laerm;62687;55.738;37.516;2023-04-03T02:38:30;69.82;62.55;75.35;;
74292;Laerm;62687;55.738;37.516;2023-04-03T02:41:14;68.43;61.68;74.51;;
74292;Laerm;62687;55.738;37.516;2023-04-03T02:43:58;69.08;61.38;74.38;;
74292;Laerm;62687;55.738;37.516;2023-04-03T02:46:42;69.02;61.54;77.99;;
74292;Laerm;62687;55.738;37.516;2023-04-03T02:49:26;69.74;62.86;76.85;;
74292;Laerm;62687;55.738;37.516;2023-04-03T02:52:10;69.63;61.91;75.05;;
74292;Laerm;62687;55.738;37.516;2023-04-03T02:54:54;69.60;63.05;78.52;;
74292;Laerm;62687;55.738;37.516;2023-04-03T02:57:38;70.38;63.29;77.04;;
74292;Laerm;62687;55.738;37.516;2023-04-03T03:00:23;69.41;62.56;76.15;;
74292;Laerm;62687;55.738;37.516;2023-04-03T03:03:07;71.52;65.87;76.92;;
74292;Laerm;62687;55.738;37.516;2023-04-03T03:06:03;70.99;65.59;76.22;;
74292;Laerm;62687;55.738;37.516;2023-04-03T03:08:48;71.05;63.76;76.32;;
74292;Laerm;62687;55.738;37.516;2023-04-03T03:11:32;71.02;61.87;77.25;;
74292;Laerm;62687;55.738;37.516;2023-04-03T03:14:17;71.36;64.90;77.47;;
74292;Laerm;62687;55.738;37.516;2023-04-03T03:17:01;71.34;65.03;76.27;;
74292;Laerm;62687;55.738;37.516;2023-04-03T03:19:45;72.16;65.24;77.60;;
74292;Laerm;62687;55.738;37.516;2023-04-03T03:22:30;72.51;64.83;77.29;;
74292;Laerm;62687;55.738;37.516;2023-04-03T03:25:14;72.66;67.56;77.44;;
74292;Laerm;62687;55.738;37.516;2023-04-03T03:27:58;71.97;66.81;76.63;;
74292;Laerm;62687;55.738;37.516;2023-04-03T03:30:43;72.73;66.00;76.76;;
74292;Laerm;62687;55.738;37.516;2023-04-03T03:33:27;72.74;64.88;78.13;;
74292;Laerm;62687;55.738;37.516;2023-04-03T03:36:12;73.32;68.40;78.86;;
74292;Laerm;62687;55.738;37.516;2023-04-03T03:38:56;72.83;67.85;77.44;;
74292;Laerm;62687;55.738;37.516;2023-04-03T03:41:40;72.91;68.25;76.84;;
74292;Laerm;62687;55.738;37.516;2023-04-03T03:44:25;73.08;68.44;77.23;;
74292;Laerm;62687;55.738;37.516;2023-04-03T03:47:09;73.51;66.89;77.52;;
74292;Laerm;62687;55.738;37.516;2023-04-03T03:49:54;73.56;68.97;77.81;;
74292;Laerm;62687;55.738;37.516;2023-04-03T03:52:38;73.79;69.16;79.88;;
74292;Laerm;62687;55.738;37.516;2023-04-03T03:55:23;73.20;68.32;77.46;;
74292;Laerm;62687;55.738;37.516;2023-04-03T03:58:07;73.13;68.28;80.63;;
74292;Laerm;62687;55.738;37.516;2023-04-03T04:00:51;74.13;68.13;78.00;;
74292;Laerm;62687;55.738;37.516;2023-04-03T04:03:35;73.78;67.47;77.99;;
74292;Laerm;62687;55.738;37.516;2023-04-03T04:06:20;73.77;67.57;78.00;;
74292;Laerm;62687;55.738;37.516;2023-04-03T04:09:05;72.92;66.90;77.17;;
74292;Laerm;62687;55.738;37.516;2023-04-03T04:11:49;73.69;69.44;79.88;;
74292;Laerm;62687;55.738;37.516;2023-04-03T04:14:34;73.39;68.64;80.74;;
74292;Laerm;62687;55.738;37.516;2023-04-03T04:17:18;73.60;68.88;78.44;;
74292;Laerm;62687;55.738;37.516;2023-04-03T04:20:03;73.89;68.12;77.83;;
74292;Laerm;62687;55.738;37.516;2023-04-03T04:22:48;74.01;69.63;77.45;;
74292;Laerm;62687;55.738;37.516;2023-04-03T04:25:33;74.01;69.61;78.31;;
74292;Laerm;62687;55.738;37.516;2023-04-03T04:28:17;74.19;71.00;77.69;;
74292;Laerm;62687;55.738;37.516;2023-04-03T04:31:02;73.45;68.64;77.63;;
74292;Laerm;62687;55.738;37.516;2023-04-03T04:33:46;74.28;70.08;78.53;;
74292;Laerm;62687;55.738;37.516;2023-04-03T04:36:30;75.32;71.00;87.24;;
74292;Laerm;62687;55.738;37.516;2023-04-03T04:39:14;74.27;70.17;78.84;;
74292;Laerm;62687;55.738;37.516;2023-04-03T04:41:58;74.57;69.72;79.45;;
74292;Laerm;62687;55.738;37.516;2023-04-03T04:44:43;74.92;70.12;78.75;;
74292;Laerm;62687;55.738;37.516;2023-04-03T04:47:28;74.25;69.98;78.58;;
74292;Laerm;62687;55.738;37.516;2023-04-03T04:50:13;74.68;70.72;77.69;;
74292;Laerm;62687;55.738;37.516;2023-04-03T04:52:57;74.87;71.26;77.87;;
74292;Laerm;62687;55.738;37.516;2023-04-03T04:55:41;74.75;70.85;80.87;;
74292;Laerm;62687;55.738;37.516;2023-04-03T04:58:26;74.84;71.12;80.65;;
74292;Laerm;62687;55.738;37.516;2023-04-03T05:01:11;74.87;70.71;78.09;;
74292;Laerm;62687;55.738;37.516;2023-04-03T05:03:55;74.49;71.29;78.26;;
74292;Laerm;62687;55.738;37.516;2023-04-03T05:06:39;75.10;70.79;92.65;;
74292;Laerm;62687;55.738;37.516;2023-04-03T05:09:24;74.52;70.10;78.57;;
74292;Laerm;62687;55.738;37.516;2023-04-03T05:12:08;73.99;69.35;81.04;;
74292;Laerm;62687;55.738;37.516;2023-04-03T05:14:53;74.24;70.53;81.88;;
74292;Laerm;62687;55.738;37.516;2023-04-03T05:17:37;74.40;69.83;78.11;;
74292;Laerm;62687;55.738;37.516;2023-04-03T05:20:22;73.72;69.90;81.09;;
74292;Laerm;62687;55.738;37.516;2023-04-03T05:23:06;73.86;70.12;77.33;;
74292;Laerm;62687;55.738;37.516;2023-04-03T05:25:51;74.16;69.89;84.82;;
74292;Laerm;62687;55.738;37.516;2023-04-03T05:28:36;73.83;68.94;83.65;;
74292;Laerm;62687;55.738;37.516;2023-04-03T05:31:20;73.85;69.88;79.84;;
74292;Laerm;62687;55.738;37.516;2023-04-03T05:34:05;73.85;69.22;78.11;;
74292;Laerm;62687;55.738;37.516;2023-04-03T05:36:49;73.67;70.53;78.05;;
74292;Laerm;62687;55.738;37.516;2023-04-03T05:39:34;73.71;69.65;78.42;;
74292;Laerm;62687;55.738;37.516;2023-04-03T05:42:18;74.05;69.36;88.37;;
74292;Laerm;62687;55.738;37.516;2023-04-03T05:45:03;73.56;69.67;80.97;;
74292;Laerm;62687;55.738;37.516;2023-04-03T05:47:47;73.44;69.12;78.11;;
74292;Laerm;62687;55.738;37.516;2023-04-03T05:50:31;73.40;68.73;84.87;;
74292;Laerm;62687;55.738;37.516;2023-04-03T05:53:20;73.26;67.94;88.45;;
74292;Laerm;62687;55.738;37.516;2023-04-03T05:56:06;74.61;69.22;89.66;;
74292;Laerm;62687;55.738;37.516;2023-04-03T05:58:50;73.25;68.37;82.51;;
74292;Laerm;62687;55.738;37.516;2023-04-03T06:01:34;73.79;68.95;78.07;;
74292;Laerm;62687;55.738;37.516;2023-04-03T06:04:19;74.52;68.78;85.49;;
74292;Laerm;62687;55.738;37.516;2023-04-03T06:07:05;73.15;68.82;81.34;;
74292;Laerm;62687;55.738;37.516;2023-04-03T06:09:51;73.55;69.71;81.21;;
74292;Laerm;62687;55.738;37.516;2023-04-03T06:12:35;73.51;68.50;78.60;;
74292;Laerm;62687;55.738;37.516;2023-04-03T06:15:19;73.02;69.49;77.51;;
74292;Laerm;62687;55.738;37.516;2023-04-03T06:18:04;72.97;68.84;79.32;;
74292;Laerm;62687;55.738;37.516;2023-04-03T06:20:48;73.40;68.30;81.28;;
74292;Laerm;62687;55.738;37.516;2023-04-03T06:23:32;73.62;69.05;81.28;;
74292;Laerm;62687;55.738;37.516;2023-04-03T06:26:16;73.00;66.92;77.57;;
74292;Laerm;62687;55.738;37.516;2023-04-03T06:29:00;73.18;68.33;79.50;;
74292;Laerm;62687;55.738;37.516;2023-04-03T06:31:46;74.46;67.96;86.57;;
74292;Laerm;62687;55.738;37.516;2023-04-03T06:34:30;72.59;67.03;82.10;;
74292;Laerm;62687;55.738;37.516;2023-04-03T06:37:17;73.16;68.76;83.77;;
74292;Laerm;62687;55.738;37.516;2023-04-03T06:40:02;72.75;66.03;86.81;;
74292;Laerm;62687;55.738;37.516;2023-04-03T06:42:46;73.06;67.60;81.98;;
74292;Laerm;62687;55.738;37.516;2023-04-03T06:45:31;73.72;69.15;89.22;;
74292;Laerm;62687;55.738;37.516;2023-04-03T06:48:15;73.44;68.10;82.38;;
74292;Laerm;62687;55.738;37.516;2023-04-03T06:50:59;74.43;71.01;86.10;;
74292;Laerm;62687;55.738;37.516;2023-04-03T06:53:43;74.40;69.12;87.44;;
74292;Laerm;62687;55.738;37.516;2023-04-03T06:56:28;73.99;70.37;77.26;;
74292;Laerm;62687;55.738;37.516;2023-04-03T06:59:13;73.75;69.58;77.46;;
74292;Laerm;62687;55.738;37.516;2023-04-03T07:02:00;73.73;68.66;80.10;;
74292;Laerm;62687;55.738;37.516;2023-04-03T07:04:45;73.06;68.88;76.46;;
74292;Laerm;62687;55.738;37.516;2023-04-03T07:07:29;72.81;69.01;76.58;;
74292;Laerm;62687;55.738;37.516;2023-04-03T07:10:13;72.84;68.51;83.49;;
74292;Laerm;62687;55.738;37.516;2023-04-03T07:12:57;73.03;68.55;80.27;;
74292;Laerm;62687;55.738;37.516;2023-04-03T07:15:41;72.96;68.91;78.65;;
74292;Laerm;62687;55.738;37.516;2023-04-03T07:18:26;72.59;67.29;77.30;;
74292;Laerm;62687;55.738;37.516;2023-04-03T07:21:10;72.52;68.34;81.79;;
74292;Laerm;62687;55.738;37.516;2023-04-03T07:23:54;73.57;68.76;86.05;;
74292;Laerm;62687;55.738;37.516;2023-04-03T07:26:39;73.00;68.85;79.34;;
74292;Laerm;62687;55.738;37.516;2023-04-03T07:29:23;72.67;67.63;76.68;;
74292;Laerm;62687;55.738;37.516;2023-04-03T07:32:07;72.74;68.72;76.26;;
74292;Laerm;62687;55.738;37.516;2023-04-03T07:34:51;73.02;69.05;82.20;;
74292;Laerm;62687;55.738;37.516;2023-04-03T07:37:36;73.21;69.32;77.22;;
74292;Laerm;62687;55.738;37.516;2023-04-03T07:40:20;73.50;69.42;76.73;;
74292;Laerm;62687;55.738;37.516;2023-04-03T07:43:05;72.54;69.13;80.95;;
74292;Laerm;62687;55.738;37.516;2023-04-03T07:45:50;71.17;67.45;83.05;;
74292;Laerm;62687;55.738;37.516;2023-04-03T07:48:34;72.10;67.36;83.51;;
74292;Laerm;62687;55.738;37.516;2023-04-03T07:51:19;72.91;68.69;76.34;;
74292;Laerm;62687;55.738;37.516;2023-04-03T07:54:04;73.68;69.63;77.67;;
74292;Laerm;62687;55.738;37.516;2023-04-03T07:56:48;73.72;69.80;79.62;;
74292;Laerm;62687;55.738;37.516;2023-04-03T07:59:33;73.92;69.49;83.10;;
74292;Laerm;62687;55.738;37.516;2023-04-03T08:02:18;73.53;69.55;79.18;;
74292;Laerm;62687;55.738;37.516;2023-04-03T08:05:02;73.30;69.13;78.05;;
74292;Laerm;62687;55.738;37.516;2023-04-03T08:07:46;73.34;68.72;79.57;;
74292;Laerm;62687;55.738;37.516;2023-04-03T08:10:31;74.42;70.34;80.30;;
74292;Laerm;62687;55.738;37.516;2023-04-03T08:13:15;74.09;69.64;82.33;;
74292;Laerm;62687;55.738;37.516;2023-04-03T08:16:13;73.52;68.72;77.09;;
74292;Laerm;62687;55.738;37.516;2023-04-03T08:18:58;73.42;69.30;78.25;;
74292;Laerm;62687;55.738;37.516;2023-04-03T08:21:43;73.95;70.06;81.08;;
74292;Laerm;62687;55.738;37.516;2023-04-03T08:24:28;74.01;70.42;81.98;;
74292;Laerm;62687;55.738;37.516;2023-04-03T08:27:12;73.38;69.61;78.24;;
74292;Laerm;62687;55.738;37.516;2023-04-03T08:29:56;73.37;68.25;77.36;;
74292;Laerm;62687;55.738;37.516;2023-04-03T08:32:40;73.46;69.42;77.65;;
74292;Laerm;62687;55.738;37.516;2023-04-03T08:35:28;73.26;69.14;77.33;;
74292;Laerm;62687;55.738;37.516;2023-04-03T08:38:13;73.05;68.94;79.14;;
74292;Laerm;62687;55.738;37.516;2023-04-03T08:41:25;72.33;68.03;79.86;;
74292;Laerm;62687;55.738;37.516;2023-04-03T08:47:23;71.72;66.69;77.10;;
74292;Laerm;62687;55.738;37.516;2023-04-03T08:50:14;73.03;67.68;86.92;;
74292;Laerm;62687;55.738;37.516;2023-04-03T08:53:01;73.02;69.07;80.26;;
74292;Laerm;62687;55.738;37.516;2023-04-03T08:55:51;72.37;67.43;77.00;;
74292;Laerm;62687;55.738;37.516;2023-04-03T08:58:49;73.29;68.77;82.99;;
74292;Laerm;62687;55.738;37.516;2023-04-03T09:01:40;73.39;69.10;79.92;;
74292;Laerm;62687;55.738;37.516;2023-04-03T09:04:26;73.60;69.49;77.06;;
74292;Laerm;62687;55.738;37.516;2023-04-03T09:07:21;73.59;69.29;78.31;;
74292;Laerm;62687;55.738;37.516;2023-04-03T09:10:08;73.67;69.00;81.85;;
74292;Laerm;62687;55.738;37.516;2023-04-03T09:13:05;73.85;69.69;77.56;;
74292;Laerm;62687;55.738;37.516;2023-04-03T09:15:56;73.48;69.02;79.37;;
74292;Laerm;62687;55.738;37.516;2023-04-03T09:18:45;73.10;69.62;78.24;;
74292;Laerm;62687;55.738;37.516;2023-04-03T09:21:38;73.06;68.72;80.36;;
74292;Laerm;62687;55.738;37.516;2023-04-03T09:24:26;72.73;69.04;77.35;;
74292;Laerm;62687;55.738;37.516;2023-04-03T09:27:10;72.82;69.15;77.34;;
74292;Laerm;62687;55.738;37.516;2023-04-03T09:29:56;72.56;68.73;78.16;;
74292;Laerm;62687;55.738;37.516;2023-04-03T09:32:41;72.99;67.97;81.12;;
74292;Laerm;62687;55.738;37.516;2023-04-03T09:35:30;73.29;69.71;77.51;;
74292;Laerm;62687;55.738;37.516;2023-04-03T09:38:18;73.50;69.18;77.78;;
74292;Laerm;62687;55.738;37.516;2023-04-03T09:41:06;73.73;69.74;80.47;;
74292;Laerm;62687;55.738;37.516;2023-04-03T09:43:53;73.65;69.95;83.07;;
74292;Laerm;62687;55.738;37.516;2023-04-03T09:46:38;73.51;69.10;77.07;;
74292;Laerm;62687;55.738;37.516;2023-04-03T09:49:23;74.24;70.64;82.35;;
74292;Laerm;62687;55.738;37.516;2023-04-03T09:52:25;73.44;68.51;76.87;;
74292;Laerm;62687;55.738;37.516;2023-04-03T09:55:21;73.27;68.98;77.77;;
74292;Laerm;62687;55.738;37.516;2023-04-03T09:58:37;73.51;69.82;77.35;;
74292;Laerm;62687;55.738;37.516;2023-04-03T10:01:37;73.90;69.50;77.90;;
74292;Laerm;62687;55.738;37.516;2023-04-03T10:04:22;73.64;69.43;79.85;;
74292;Laerm;62687;55.738;37.516;2023-04-03T10:07:26;73.75;70.21;77.77;;
74292;Laerm;62687;55.738;37.516;2023-04-03T10:10:21;73.56;69.55;77.45;;
74292;Laerm;62687;55.738;37.516;2023-04-03T10:13:17;73.15;67.88;77.23;;
74292;Laerm;62687;55.738;37.516;2023-04-03T10:16:12;74.08;70.36;82.19;;
74292;Laerm;62687;55.738;37.516;2023-04-03T10:19:25;73.48;69.32;77.36;;
74292;Laerm;62687;55.738;37.516;2023-04-03T10:22:20;72.83;68.11;78.50;;
74292;Laerm;62687;55.738;37.516;2023-04-03T10:25:17;72.88;69.22;76.62;;
74292;Laerm;62687;55.738;37.516;2023-04-03T10:34:28;73.84;69.69;77.50;;
74292;Laerm;62687;55.738;37.516;2023-04-03T10:37:24;73.13;67.17;78.56;;
74292;Laerm;62687;55.738;37.516;2023-04-03T10:40:28;73.17;69.25;80.35;;
74292;Laerm;62687;55.738;37.516;2023-04-03T10:53:36;73.63;69.48;79.10;;
74292;Laerm;62687;55.738;37.516;2023-04-03T10:59:48;73.59;69.51;77.43;;
74292;Laerm;62687;55.738;37.516;2023-04-03T11:02:57;73.67;69.58;77.45;;
74292;Laerm;62687;55.738;37.516;2023-04-03T11:05:45;73.30;69.22;77.34;;
74292;Laerm;62687;55.738;37.516;2023-04-03T11:08:45;73.68;70.16;81.92;;
74292;Laerm;62687;55.738;37.516;2023-04-03T11:11:38;73.30;69.13;79.11;;
74292;Laerm;62687;55.738;37.516;2023-04-03T11:20:18;73.53;69.04;81.46;;
74292;Laerm;62687;55.738;37.516;2023-04-03T11:23:12;73.80;68.25;79.59;;
74292;Laerm;62687;55.738;37.516;2023-04-03T11:26:22;74.03;70.49;80.04;;
74292;Laerm;62687;55.738;37.516;2023-04-03T11:29:09;73.68;69.56;80.91;;
74292;Laerm;62687;55.738;37.516;2023-04-03T11:34:49;72.81;69.12;80.50;;
74292;Laerm;62687;55.738;37.516;2023-04-03T11:37:38;73.97;70.51;83.00;;
74292;Laerm;62687;55.738;37.516;2023-04-03T11:40:28;73.49;70.19;76.82;;
74292;Laerm;62687;55.738;37.516;2023-04-03T11:43:25;73.90;70.12;80.47;;
74292;Laerm;62687;55.738;37.516;2023-04-03T11:46:09;73.62;70.32;78.75;;
74292;Laerm;62687;55.738;37.516;2023-04-03T11:48:54;72.74;69.40;77.70;;
74292;Laerm;62687;55.738;37.516;2023-04-03T11:51:41;71.80;68.45;82.86;;
74292;Laerm;62687;55.738;37.516;2023-04-03T11:54:46;70.71;66.73;77.85;;
74292;Laerm;62687;55.738;37.516;2023-04-03T11:58:04;72.37;68.71;77.76;;
74292;Laerm;62687;55.738;37.516;2023-04-03T12:01:00;72.62;68.55;76.28;;
74292;Laerm;62687;55.738;37.516;2023-04-03T12:04:08;73.24;68.87;78.98;;
74292;Laerm;62687;55.738;37.516;2023-04-03T12:07:12;74.86;69.91;80.62;;
74292;Laerm;62687;55.738;37.516;2023-04-03T12:09:58;74.92;71.59;77.94;;
74292;Laerm;62687;55.738;37.516;2023-04-03T12:12:55;74.85;70.22;78.80;;
74292;Laerm;62687;55.738;37.516;2023-04-03T12:24:42;75.06;69.89;80.38;;
74292;Laerm;62687;55.738;37.516;2023-04-03T12:27:30;75.68;71.83;88.84;;
74292;Laerm;62687;55.738;37.516;2023-04-03T12:30:26;74.28;70.69;77.60;;
74292;Laerm;62687;55.738;37.516;2023-04-03T12:33:24;74.10;70.75;77.60;;
74292;Laerm;62687;55.738;37.516;2023-04-03T12:48:26;74.57;70.40;89.82;;
74292;Laerm;62687;55.738;37.516;2023-04-03T12:51:38;74.88;71.39;81.26;;
74292;Laerm;62687;55.738;37.516;2023-04-03T12:54:27;74.44;70.30;80.07;;
74292;Laerm;62687;55.738;37.516;2023-04-03T12:57:26;74.11;70.92;79.87;;
74292;Laerm;62687;55.738;37.516;2023-04-03T13:00:32;74.40;70.49;88.70;;
74292;Laerm;62687;55.738;37.516;2023-04-03T13:03:25;73.85;69.12;77.27;;
74292;Laerm;62687;55.738;37.516;2023-04-03T13:06:26;74.19;69.89;86.45;;
74292;Laerm;62687;55.738;37.516;2023-04-03T13:09:37;74.17;70.46;78.72;;
74292;Laerm;62687;55.738;37.516;2023-04-03T13:12:21;73.70;69.45;77.83;;
74292;Laerm;62687;55.738;37.516;2023-04-03T13:15:18;74.16;69.88;79.61;;
74292;Laerm;62687;55.738;37.516;2023-04-03T13:18:03;74.00;70.42;78.04;;
74292;Laerm;62687;55.738;37.516;2023-04-03T13:20:48;74.11;70.23;79.40;;
74292;Laerm;62687;55.738;37.516;2023-04-03T13:23:36;73.95;70.58;78.23;;
74292;Laerm;62687;55.738;37.516;2023-04-03T13:26:25;74.25;69.62;77.63;;
74292;Laerm;62687;55.738;37.516;2023-04-03T13:29:22;73.28;69.57;77.35;;
74292;Laerm;62687;55.738;37.516;2023-04-03T13:32:13;73.51;69.45;77.73;;
74292;Laerm;62687;55.738;37.516;2023-04-03T13:35:01;73.09;69.27;77.02;;
74292;Laerm;62687;55.738;37.516;2023-04-03T13:37:56;72.25;67.70;78.66;;
74292;Laerm;62687;55.738;37.516;2023-04-03T13:40:53;71.57;67.80;79.99;;
74292;Laerm;62687;55.738;37.516;2023-04-03T13:43:38;72.00;67.65;76.41;;
74292;Laerm;62687;55.738;37.516;2023-04-03T13:46:26;71.71;67.40;78.10;;
74292;Laerm;62687;55.738;37.516;2023-04-03T13:55:16;71.44;67.65;76.53;;
74292;Laerm;62687;55.738;37.516;2023-04-03T13:58:24;71.34;67.61;78.69;;
74292;Laerm;62687;55.738;37.516;2023-04-03T14:01:20;71.40;67.08;77.82;;
74292;Laerm;62687;55.738;37.516;2023-04-03T14:04:33;71.80;67.65;76.80;;
74292;Laerm;62687;55.738;37.516;2023-04-03T14:07:29;71.35;67.50;77.20;;
74292;Laerm;62687;55.738;37.516;2023-04-03T14:10:14;72.41;67.53;86.29;;
74292;Laerm;62687;55.738;37.516;2023-04-03T14:12:58;72.38;68.30;77.41;;
74292;Laerm;62687;55.738;37.516;2023-04-03T14:15:43;71.80;67.47;77.98;;
74292;Laerm;62687;55.738;37.516;2023-04-03T14:18:28;71.49;67.68;82.23;;
74292;Laerm;62687;55.738;37.516;2023-04-03T14:21:14;73.70;67.52;91.38;;
74292;Laerm;62687;55.738;37.516;2023-04-03T14:23:58;71.06;67.39;79.24;;
74292;Laerm;62687;55.738;37.516;2023-04-03T14:26:43;70.09;65.36;74.10;;
74292;Laerm;62687;55.738;37.516;2023-04-03T14:29:27;72.04;67.92;81.52;;
74292;Laerm;62687;55.738;37.516;2023-04-03T14:32:13;71.72;67.85;79.83;;
74292;Laerm;62687;55.738;37.516;2023-04-03T14:34:58;71.40;67.34;76.05;;
74292;Laerm;62687;55.738;37.516;2023-04-03T14:37:38;72.22;68.58;75.48;;
74292;Laerm;62687;55.738;37.516;2023-04-03T14:40:26;71.64;67.84;79.93;;
74292;Laerm;62687;55.738;37.516;2023-04-03T14:43:12;71.31;67.57;79.45;;
74292;Laerm;62687;55.738;37.516;2023-04-03T14:45:56;72.37;68.62;82.04;;
74292;Laerm;62687;55.738;37.516;2023-04-03T14:48:41;71.69;68.56;75.27;;
74292;Laerm;62687;55.738;37.516;2023-04-03T14:51:25;71.24;67.64;74.90;;
74292;Laerm;62687;55.738;37.516;2023-04-03T14:54:20;71.37;68.07;77.32;;
74292;Laerm;62687;55.738;37.516;2023-04-03T14:57:12;71.06;67.07;75.10;;
74292;Laerm;62687;55.738;37.516;2023-04-03T14:59:57;71.24;67.45;74.72;;
74292;Laerm;62687;55.738;37.516;2023-04-03T15:02:41;72.04;68.65;79.44;;
74292;Laerm;62687;55.738;37.516;2023-04-03T15:05:26;71.72;66.73;82.88;;
74292;Laerm;62687;55.738;37.516;2023-04-03T15:08:21;70.68;66.30;77.62;;
74292;Laerm;62687;55.738;37.516;2023-04-03T15:11:05;71.34;68.07;74.19;;
74292;Laerm;62687;55.738;37.516;2023-04-03T15:13:50;71.83;68.23;77.37;;
74292;Laerm;62687;55.738;37.516;2023-04-03T15:16:34;72.68;68.47;85.14;;
74292;Laerm;62687;55.738;37.516;2023-04-03T15:19:19;72.48;68.67;86.44;;
74292;Laerm;62687;55.738;37.516;2023-04-03T15:22:03;72.33;68.93;78.14;;
74292;Laerm;62687;55.738;37.516;2023-04-03T15:24:47;71.96;67.70;76.00;;
74292;Laerm;62687;55.738;37.516;2023-04-03T15:27:31;72.21;68.72;89.29;;
74292;Laerm;62687;55.738;37.516;2023-04-03T15:30:18;71.41;67.81;74.99;;
74292;Laerm;62687;55.738;37.516;2023-04-03T15:33:02;71.43;68.22;78.92;;
74292;Laerm;62687;55.738;37.516;2023-04-03T15:35:46;72.22;67.66;87.34;;
74292;Laerm;62687;55.738;37.516;2023-04-03T15:38:31;71.13;67.50;75.96;;
74292;Laerm;62687;55.738;37.516;2023-04-03T15:41:15;72.03;67.86;79.26;;
74292;Laerm;62687;55.738;37.516;2023-04-03T15:43:59;71.23;67.46;75.23;;
74292;Laerm;62687;55.738;37.516;2023-04-03T15:46:47;71.38;68.00;75.63;;
74292;Laerm;62687;55.738;37.516;2023-04-03T15:49:35;71.36;68.02;75.19;;
74292;Laerm;62687;55.738;37.516;2023-04-03T15:52:20;70.87;67.98;73.94;;
74292;Laerm;62687;55.738;37.516;2023-04-03T15:55:04;71.10;67.12;74.79;;
74292;Laerm;62687;55.738;37.516;2023-04-03T15:57:49;70.87;65.26;76.81;;
74292;Laerm;62687;55.738;37.516;2023-04-03T16:00:33;70.43;65.99;87.36;;
74292;Laerm;62687;55.738;37.516;2023-04-03T16:03:19;72.09;67.17;84.77;;
74292;Laerm;62687;55.738;37.516;2023-04-03T16:06:05;71.87;67.33;82.92;;
74292;Laerm;62687;55.738;37.516;2023-04-03T16:08:49;70.33;65.95;77.99;;
74292;Laerm;62687;55.738;37.516;2023-04-03T16:11:33;71.54;67.73;78.04;;
74292;Laerm;62687;55.738;37.516;2023-04-03T16:14:19;70.72;66.60;74.77;;
74292;Laerm;62687;55.738;37.516;2023-04-03T16:17:03;72.33;67.85;84.15;;
74292;Laerm;62687;55.738;37.516;2023-04-03T16:19:47;71.76;67.64;80.97;;
74292;Laerm;62687;55.738;37.516;2023-04-03T16:22:32;71.37;67.64;80.50;;
74292;Laerm;62687;55.738;37.516;2023-04-03T16:25:17;71.24;68.08;79.23;;
74292;Laerm;62687;55.738;37.516;2023-04-03T16:28:01;72.74;67.58;85.38;;
74292;Laerm;62687;55.738;37.516;2023-04-03T16:30:46;71.52;68.26;78.10;;
74292;Laerm;62687;55.738;37.516;2023-04-03T16:33:31;71.66;68.22;76.51;;